Latest Weather Observations for Trepell

IDQ60801

Issued at 1:32 pm EST Friday 6 May 2016 (issued every 30 minutes, with the page automatically refreshed every 10 minutes)

About weather observations | Map of weather stations | Latest weather observations for QLD | Other Formats
Station Details ID: 037036 Name: TREPELL AIRPORT Lat: -21.84 Lon: 140.89 Height: 266.2 m
Data from the previous 72 hours. | See also: Recent months at Trepell
Date/Time
EST
Temp
°C
App
Temp
°C
Dew
Point
Rel
Hum
%
Delta-T
°C
Wind Press
QNH
hPa
Press
MSL
hPa
Rain
since 9 am
mm
Dir
 
Spd
km/h
Gust
km/h
Spd
kts
Gust
kts
06/01:30pm 33.4 30.8 3.3 15 15.7 W 6 11 3 6 1013.0 1012.1 0.0
06/01:00pm 33.5 31.3 5.1 17 15.3 NNW 6 11 3 6 1013.5 1012.6 0.0
06/12:30pm 32.3 29.5 5.0 18 14.6 NNW 9 17 5 9 1014.1 1013.2 0.0
06/12:00pm 32.1 29.2 4.8 18 14.5 ENE 9 17 5 9 1014.6 1013.7 0.0
06/11:30am 31.4 28.1 2.6 16 14.7 ESE 9 19 5 10 1015.3 1014.4 0.0
06/11:00am 30.7 26.4 1.1 15 14.6 SE 13 19 7 10 1016.0 1015.0 0.0
06/10:30am 29.6 24.4 0.2 15 14.2 ESE 17 22 9 12 1016.3 1015.4 0.0
06/10:00am 27.7 23.3 0.5 17 13.0 ESE 13 17 7 9 1016.5 1015.6 0.0
06/09:30am 25.7 22.1 0.4 19 11.9 SSE 9 11 5 6 1016.6 1015.7 0.0
06/09:00am 24.3 20.3 0.6 21 11.1 SSW 11 13 6 7 1016.7 1015.8 0.0
06/08:30am 22.7 19.1 0.5 23 10.3 SW 9 15 5 8 1016.5 1015.6 0.0
06/08:00am 21.0 17.9 1.3 27 9.1 W 7 9 4 5 1016.0 1015.0 0.0
06/07:30am 18.9 15.4 1.0 30 8.1 WSW 9 11 5 6 1015.5 1014.6 0.0
06/07:00am 18.3 15.0 0.4 30 8.0 SW 7 7 4 4 1015.2 1014.3 0.0
06/06:30am 18.9 17.1 1.0 30 8.1 CALM 0 0 0 0 1014.9 1014.0 0.0
06/06:00am 18.4 15.7 0.5 30 8.0 SW 4 7 2 4 1014.5 1013.6 0.0
06/05:30am 19.0 15.9 1.5 31 8.0 WSW 7 9 4 5 1014.6 1013.7 0.0
06/05:00am 18.8 15.6 0.9 30 8.1 SW 7 9 4 5 1014.4 1013.5 0.0
06/04:30am 19.5 17.7 1.0 29 8.4 CALM 0 0 0 0 1014.3 1013.4 0.0
06/04:00am 19.2 16.3 1.2 30 8.2 WSW 6 7 3 4 1014.3 1013.4 0.0
06/03:30am 19.9 16.1 1.8 30 8.4 SW 11 13 6 7 1014.3 1013.4 0.0
06/03:00am 20.1 17.7 2.0 30 8.4 S 4 7 2 4 1014.5 1013.6 0.0
06/02:30am 19.3 15.8 1.3 30 8.2 SSW 9 11 5 6 1014.5 1013.6 0.0
06/02:00am 20.5 17.5 1.9 29 8.7 SSW 7 9 4 5 1014.7 1013.8 0.0
06/01:30am 20.6 17.6 2.0 29 8.7 SSW 7 9 4 5 1014.9 1014.0 0.0
06/01:00am 20.8 17.5 2.6 30 8.6 SW 9 13 5 7 1015.2 1014.3 0.0
06/12:30am 21.9 19.1 3.1 29 9.1 WSW 7 9 4 5 1015.1 1014.2 0.0
06/12:00am 21.7 18.9 2.9 29 9.0 WSW 7 9 4 5 1015.4 1014.5 0.0
 
Date/Time
EST
Temp
°C
App
Temp
°C
Dew
Point
Rel
Hum
%
Delta-T
°C
Wind Press
QNH
hPa
Press
MSL
hPa
Rain
since 9 am
mm
Dir
 
Spd
km/h
Gust
km/h
Spd
kts
Gust
kts
05/11:30pm 21.7 18.9 2.9 29 9.0 SW 7 9 4 5 1015.6 1014.7 0.0
05/11:00pm 22.0 18.8 3.2 29 9.1 SW 9 11 5 6 1016.0 1015.0 0.0
05/10:30pm 22.7 19.5 3.3 28 9.5 SW 9 11 5 6 1016.0 1015.0 0.0
05/10:00pm 23.1 20.3 3.1 27 9.7 SW 7 9 4 5 1016.1 1015.1 0.0
05/09:30pm 23.8 21.2 3.2 26 10.1 SW 6 7 3 4 1016.2 1015.2 0.0
05/09:00pm 24.6 21.5 3.8 26 10.4 S 9 11 5 6 1015.6 1014.7 0.0
05/08:30pm 24.9 21.9 4.1 26 10.4 SSW 9 11 5 6 1015.4 1014.5 0.0
05/08:00pm 25.6 23.0 4.1 25 10.8 SSW 7 9 4 5 1015.0 1014.1 0.0
05/07:30pm 26.5 23.9 4.3 24 11.3 S 7 9 4 5 1014.5 1013.6 0.0
05/07:00pm 27.0 23.6 4.1 23 11.7 S 11 13 6 7 1014.2 1013.3 0.0
05/06:30pm 28.2 24.9 4.5 22 12.2 S 11 15 6 8 1014.0 1013.1 0.0
05/06:00pm 29.5 26.1 4.2 20 13.1 S 11 15 6 8 1013.7 1012.8 0.0
05/05:30pm 30.2 26.4 4.0 19 13.6 SSE 13 15 7 8 1013.5 1012.6 0.0
05/05:00pm 30.6 27.1 3.6 18 13.9 SSW 11 17 6 9 1013.3 1012.4 0.0
05/04:30pm 30.7 27.2 3.7 18 14.0 SSW 11 15 6 8 1013.4 1012.5 0.0
05/04:00pm 31.2 27.8 4.1 18 14.2 SSE 11 17 6 9 1013.3 1012.4 0.0
05/03:30pm 31.6 28.7 4.4 18 14.3 SE 9 15 5 8 1013.3 1012.4 0.0
05/03:00pm 31.6 28.5 3.6 17 14.5 SSE 9 19 5 10 1013.5 1012.6 0.0
05/02:30pm 31.2 27.9 2.4 16 14.6 S 9 13 5 7 1013.9 1013.0 0.0
05/02:00pm 31.3 28.7 3.4 17 14.4 WNW 6 13 3 7 1014.3 1013.4 0.0
05/01:30pm 31.3 28.6 2.5 16 14.7 WNW 6 11 3 6 1014.8 1013.9 0.0
05/01:00pm 30.7 27.0 0.2 14 14.9 ENE 9 15 5 8 1015.4 1014.5 0.0
05/12:30pm 30.5 26.3 -1.0 13 15.0 ESE 11 17 6 9 1015.7 1014.8 0.0
05/12:00pm 29.8 25.5 -1.5 13 14.7 SE 11 19 6 10 1016.4 1015.5 0.0
05/11:30am 29.1 24.5 -1.1 14 14.2 SE 13 20 7 11 1017.1 1016.2 0.0
05/11:00am 28.5 24.0 -0.6 15 13.8 ESE 13 19 7 10 1017.6 1016.7 0.0
05/10:30am 26.6 21.7 -0.4 17 12.6 SE 15 20 8 11 1018.3 1017.4 0.0
05/10:00am 25.9 21.9 0.5 19 12.0 ESE 11 17 6 9 1018.6 1017.7 0.0
05/09:30am 23.7 20.2 1.4 23 10.6 ESE 9 13 5 7 1018.4 1017.5 0.0
05/09:00am 21.7 18.2 1.4 26 9.5 SSE 9 11 5 6 1018.3 1017.4 0.0
05/08:30am 19.7 16.5 0.7 28 8.6 WSW 7 9 4 5 1018.2 1017.3 0.0
05/08:00am 17.5 14.2 0.2 31 7.6 WSW 7 9 4 5 1017.9 1017.0 0.0
05/07:30am 16.7 13.0 -0.1 32 7.3 WSW 9 11 5 6 1017.7 1016.8 0.0
05/07:00am 15.8 12.4 -0.4 33 6.9 SSW 7 7 4 4 1017.3 1016.4 0.0
05/06:30am 16.1 12.7 -0.6 32 7.1 SW 7 9 4 5 1017.1 1016.2 0.0
05/06:00am 16.0 12.2 -0.7 32 7.1 SW 9 9 5 5 1016.8 1015.9 0.0
05/05:30am 15.9 12.1 -0.8 32 7.1 WSW 9 9 5 5 1016.6 1015.7 0.0
05/05:00am 16.3 12.5 -0.4 32 7.2 SW 9 9 5 5 1016.5 1015.6 0.0
05/04:30am 16.8 13.4 -0.9 30 7.6 WSW 7 9 4 5 1016.4 1015.5 0.0
05/04:00am 16.6 12.8 -0.6 31 7.4 WSW 9 9 5 5 1016.3 1015.4 0.0
05/03:30am 16.4 12.5 -1.2 30 7.5 SW 9 9 5 5 1016.1 1015.1 0.0
05/03:00am 16.9 14.4 -0.8 30 7.6 SW 2 6 1 3 1016.2 1015.2 0.0
05/02:30am 17.7 14.4 -1.5 27 8.2 SW 6 7 3 4 1016.1 1015.1 0.0
05/02:00am 17.5 14.0 -1.7 27 8.1 WSW 7 9 4 5 1016.3 1015.4 0.0
05/01:30am 17.8 14.3 -1.4 27 8.2 SW 7 9 4 5 1016.3 1015.4 0.0
05/01:00am 17.8 14.4 -0.9 28 8.1 SSW 7 11 4 6 1016.6 1015.7 0.0
05/12:30am 19.2 17.0 -1.3 25 8.9 CALM 0 0 0 0 1016.8 1015.9 0.0
05/12:00am 19.4 17.3 -1.1 25 8.9 CALM 0 0 0 0 1017.0 1016.1 0.0
 
Date/Time
EST
Temp
°C
App
Temp
°C
Dew
Point
Rel
Hum
%
Delta-T
°C
Wind Press
QNH
hPa
Press
MSL
hPa
Rain
since 9 am
mm
Dir
 
Spd
km/h
Gust
km/h
Spd
kts
Gust
kts
04/11:30pm 19.1 17.0 -0.8 26 8.7 CALM 0 0 0 0 1017.2 1016.3 0.0
04/11:00pm 20.0 17.8 -1.7 23 9.4 CALM 0 0 0 0 1017.2 1016.3 0.0
04/10:30pm 20.3 16.9 -2.1 22 9.6 SSE 6 6 3 3 1017.3 1016.4 0.0
04/10:00pm 20.1 16.6 -1.1 24 9.3 SSW 7 13 4 7 1017.4 1016.5 0.0
04/09:30pm 21.4 18.1 -1.2 22 10.0 SSE 6 7 3 4 1017.2 1016.3 0.0
04/09:00pm 21.6 18.1 -1.0 22 10.0 S 7 7 4 4 1017.1 1016.2 0.0
04/08:30pm 21.8 18.6 -0.8 22 10.1 SSW 6 7 3 4 1016.9 1016.0 0.0
04/08:00pm 23.2 19.6 0.9 23 10.4 SE 9 9 5 5 1016.5 1015.6 0.0
04/07:30pm 24.1 21.2 1.7 23 10.7 SE 6 7 3 4 1016.2 1015.2 0.0
04/07:00pm 24.8 21.0 -1.1 18 11.8 SE 9 11 5 6 1015.8 1014.9 0.0
04/06:30pm 25.7 21.9 -0.4 18 12.1 SE 9 13 5 7 1015.5 1014.6 0.0
04/06:00pm 27.6 22.8 -2.3 14 13.6 ESE 13 15 7 8 1015.2 1014.3 0.0
04/05:30pm 28.3 23.9 -2.7 13 14.1 ESE 11 17 6 9 1015.0 1014.1 0.0
04/05:00pm 28.9 24.1 -2.3 13 14.4 ESE 13 17 7 9 1015.1 1014.2 0.0
04/04:30pm 28.7 24.4 -1.4 14 14.1 SE 11 19 6 10 1015.0 1014.1 0.0
04/04:00pm 28.6 24.2 -2.5 13 14.2 ESE 11 17 6 9 1015.0 1014.1 0.0
04/03:30pm 28.5 23.3 -2.6 13 14.2 ESE 15 20 8 11 1015.1 1014.2 0.0
04/03:00pm 28.8 23.8 -1.3 14 14.1 SE 15 22 8 12 1015.3 1014.4 0.0
04/02:30pm 28.1 22.6 -1.9 14 13.8 SSE 17 24 9 13 1015.5 1014.6 0.0
04/02:00pm 27.8 22.4 -1.2 15 13.5 SE 17 22 9 12 1015.8 1014.9 0.0
04/01:30pm 27.3 21.4 -0.7 16 13.1 SE 20 30 11 16 1016.5 1015.6 0.0
04/01:00pm 27.1 21.2 -0.9 16 13.0 SSE 20 28 11 15 1016.8 1015.9 0.0
04/12:30pm 27.2 21.1 0.1 17 12.9 SE 22 35 12 19 1017.4 1016.5 0.0
04/12:00pm 26.2 20.0 0.0 18 12.3 SE 22 32 12 17 1018.0 1017.1 0.0
04/11:30am 26.0 20.4 1.3 20 11.9 SE 20 28 11 15 1018.5 1017.6 0.0
04/11:00am 25.3 19.4 1.4 21 11.4 SE 22 30 12 16 1018.8 1017.9 0.0
04/10:30am 24.8 18.5 1.7 22 11.1 SE 24 32 13 17 1019.3 1018.4 0.0
04/10:00am 23.4 18.2 3.4 27 9.8 SE 20 26 11 14 1019.4 1018.5 0.0
04/09:30am 22.5 17.7 4.5 31 9.0 SE 19 24 10 13 1019.4 1018.5 0.0
04/09:00am 20.8 17.9 6.7 40 7.2 SSE 11 17 6 9 1019.2 1018.3 0.6
04/08:30am 19.5 17.3 7.9 47 6.0 S 9 13 5 7 1019.0 1018.1 0.6
04/08:00am 18.2 16.0 9.3 56 4.7 SW 11 13 6 7 1018.6 1017.7 0.6
04/07:30am 17.2 15.1 9.6 61 4.0 SW 11 13 6 7 1018.3 1017.4 0.6
04/07:00am 16.8 15.0 9.5 62 3.9 SSW 9 11 5 6 1017.6 1016.7 0.6
04/06:30am 17.1 15.3 9.3 60 4.1 SSW 9 13 5 7 1017.3 1016.4 0.6
04/06:00am 17.3 15.6 9.7 61 4.0 SSW 9 13 5 7 1017.0 1016.1 0.6
04/05:30am 17.4 15.6 10.8 65 3.6 SW 11 15 6 8 1016.8 1015.9 0.6
04/05:00am 17.2 16.1 11.9 71 2.9 SW 9 11 5 6 1016.6 1015.7 0.6
04/04:30am 17.5 16.4 12.0 70 3.1 SW 9 13 5 7 1016.3 1015.4 0.6
04/04:00am 17.3 16.4 12.6 74 2.6 SW 9 11 5 6 1016.3 1015.4 0.6
04/03:30am 17.9 17.7 13.0 73 2.8 WSW 6 6 3 3 1016.4 1015.5 0.6
04/03:00am 17.8 17.4 13.1 74 2.7 WSW 7 9 4 5 1016.4 1015.5 0.6
04/02:30am 18.4 18.6 13.1 71 3.0 SW 4 7 2 4 1016.5 1015.6 0.6
04/02:00am 18.2 17.6 13.5 74 2.7 SSW 9 11 5 6 1016.8 1015.9 0.6
04/01:30am 18.9 18.4 13.7 72 3.0 SW 9 13 5 7 1016.7 1015.8 0.6
04/01:00am 19.2 18.9 14.5 74 2.8 SW 9 11 5 6 1016.9 1016.0 0.6
04/12:30am 19.8 19.7 15.0 74 2.8 WSW 9 13 5 7 1017.2 1016.3 0.6
04/12:00am 20.0 20.4 15.2 74 2.9 SW 7 9 4 5 1017.2 1016.3 0.6
 
Date/Time
EST
Temp
°C
App
Temp
°C
Dew
Point
Rel
Hum
%
Delta-T
°C
Wind Press
QNH
hPa
Press
MSL
hPa
Rain
since 9 am
mm
Dir
 
Spd
km/h
Gust
km/h
Spd
kts
Gust
kts
03/11:30pm 20.5 20.6 15.5 73 3.0 SW 9 13 5 7 1017.3 1016.4 0.6
03/11:00pm 20.9 20.8 15.9 73 3.0 SSW 11 15 6 8 1017.1 1016.2 0.6
03/10:30pm 21.0 20.4 16.6 76 2.7 SW 15 19 8 10 1017.3 1016.4 0.6
03/10:00pm 21.1 21.4 17.1 78 2.5 SSW 11 17 6 9 1017.4 1016.5 0.6
03/09:30pm 21.0 21.8 17.2 79 2.4 SSW 9 13 5 7 1017.2 1016.3 0.6
03/09:00pm 21.1 21.4 16.9 77 2.6 S 11 15 6 8 1017.2 1016.3 0.6
03/08:30pm 21.1 21.2 17.5 80 2.2 SSW 13 17 7 9 1017.1 1016.2 0.6
03/08:00pm 21.1 21.9 17.3 79 2.4 SSW 9 11 5 6 1016.7 1015.8 0.6
03/07:30pm 21.2 21.6 17.2 78 2.5 SSW 11 15 6 8 1016.8 1015.9 0.6
03/07:00pm 21.4 20.6 17.2 77 2.6 SSW 17 20 9 11 1016.7 1015.8 0.6
03/06:30pm 21.6 22.7 17.2 76 2.7 S 7 9 4 5 1016.1 1015.1 0.4
03/06:00pm 21.8 21.7 17.0 74 3.0 SSW 13 17 7 9 1016.0 1015.0 0.4
03/05:30pm 22.7 22.6 16.9 70 3.6 SSW 13 17 7 9 1015.7 1014.8 0.2
03/05:00pm 22.9 22.9 17.1 70 3.6 SSW 13 17 7 9 1015.5 1014.6 0.2
03/04:30pm 23.1 22.2 16.9 68 3.8 SSW 17 22 9 12 1015.5 1014.6 0.2
03/04:00pm 25.4 22.5 15.1 53 6.3 SSW 24 30 13 16 1015.2 1014.3 0.2
03/03:30pm 26.7 23.7 14.8 48 7.2 SW 24 30 13 16 1014.7 1013.8 0.2
03/03:00pm 26.7 24.6 14.8 48 7.2 SW 19 24 10 13 1014.7 1013.8 0.2
03/02:30pm 26.9 25.2 14.6 46 7.5 SW 17 20 9 11 1015.0 1014.1 0.2
03/02:00pm 27.1 25.0 14.8 47 7.5 SW 19 24 10 13 1015.3 1014.4 0.2

Other Formats:

Comma delimited format used in spreadsheet applications
http://www.bom.gov.au/fwo/IDQ60801/IDQ60801.94338.axf

JavaScript Object Notation format (JSON) in row-major order
http://www.bom.gov.au/fwo/IDQ60801/IDQ60801.94338.json